createdAt,value
2023-01-25T00:01:29.394Z,1.20
2023-01-25T00:06:33.509Z,1.24
2023-01-25T00:11:44.589Z,1.30
2023-01-25T00:16:53.260Z,1.10
2023-01-25T00:22:06.755Z,1.11
2023-01-25T00:27:11.410Z,1.13
2023-01-25T00:32:49.459Z,1.13
2023-01-25T00:37:56.917Z,1.12
2023-01-25T00:43:07.380Z,1.16
2023-01-25T00:48:12.460Z,1.18
2023-01-25T00:53:17.762Z,1.18
2023-01-25T00:58:24.776Z,1.16
2023-01-25T01:03:33.752Z,1.06
2023-01-25T01:08:39.773Z,0.99
2023-01-25T01:13:49.915Z,0.91
2023-01-25T01:18:55.749Z,1.09
2023-01-25T01:24:02.589Z,1.17
2023-01-25T01:29:12.490Z,1.13
2023-01-25T01:34:16.757Z,1.14
2023-01-25T01:39:25.769Z,1.13
2023-01-25T01:45:03.011Z,1.19
2023-01-25T01:50:28.260Z,1.20
2023-01-25T01:55:40.069Z,1.17
2023-01-25T02:00:47.871Z,1.15
2023-01-25T02:05:58.181Z,1.11
2023-01-25T02:11:03.097Z,1.04
2023-01-25T02:16:20.127Z,0.84
2023-01-25T02:21:30.710Z,0.67
2023-01-25T02:26:35.415Z,0.62
2023-01-25T02:31:38.725Z,0.60
2023-01-25T02:36:44.894Z,0.50
2023-01-25T02:41:50.108Z,0.56
2023-01-25T02:46:54.335Z,0.58
2023-01-25T02:51:59.410Z,0.54
2023-01-25T02:57:11.764Z,0.64
2023-01-25T03:02:27.208Z,0.62
2023-01-25T03:07:37.584Z,0.62
2023-01-25T03:12:51.048Z,0.58
2023-01-25T03:17:54.138Z,0.50
2023-01-25T03:22:57.934Z,0.62
2023-01-25T03:28:05.823Z,0.71
2023-01-25T03:33:26.936Z,0.70
2023-01-25T03:38:33.981Z,0.68
2023-01-25T03:43:39.912Z,0.74
2023-01-25T03:48:46.099Z,0.80
2023-01-25T03:53:52.194Z,0.84
2023-01-25T03:58:59.575Z,0.87
2023-01-25T04:04:03.682Z,0.76
2023-01-25T04:09:13.854Z,0.85
2023-01-25T04:14:42.582Z,0.75
2023-01-25T04:20:10.193Z,0.71
2023-01-25T04:25:35.392Z,0.72
2023-01-25T04:30:42.678Z,0.60
2023-01-25T04:35:48.459Z,0.57
2023-01-25T04:40:56.737Z,0.66
2023-01-25T04:46:03.896Z,0.65
2023-01-25T04:51:09.843Z,0.63
2023-01-25T04:56:15.018Z,0.59
2023-01-25T05:01:25.796Z,0.48
2023-01-25T05:06:32.228Z,0.51
2023-01-25T05:11:35.573Z,0.43
2023-01-25T05:16:44.530Z,0.50
2023-01-25T05:21:59.896Z,0.51
2023-01-25T05:27:22.736Z,0.52
2023-01-25T05:32:49.425Z,0.35
2023-01-25T05:38:12.196Z,0.48
2023-01-25T05:48:39.556Z,0.30
2023-01-25T05:53:47.149Z,0.29
2023-01-25T05:58:59.628Z,0.32
2023-01-25T06:04:07.794Z,0.40
2023-01-25T06:09:20.942Z,0.43
2023-01-25T06:14:30.523Z,0.38
2023-01-25T06:19:47.581Z,0.36
2023-01-25T06:25:10.771Z,0.37
2023-01-25T06:30:26.519Z,0.23
2023-01-25T06:35:43.584Z,0.06
2023-01-25T06:40:49.723Z,-0.02
2023-01-25T06:46:00.799Z,-0.19
2023-01-25T06:51:36.747Z,-0.08
2023-01-25T06:56:51.317Z,0.06
2023-01-25T07:02:28.433Z,0.02
2023-01-25T07:07:34.155Z,-0.16
2023-01-25T07:12:41.406Z,-0.10
2023-01-25T07:17:50.175Z,0.02
2023-01-25T07:22:56.413Z,0.16
2023-01-25T07:28:25.533Z,0.19
2023-01-25T07:33:31.808Z,0.20
2023-01-25T07:38:46.671Z,0.19
2023-01-25T07:44:03.485Z,0.16
2023-01-25T07:49:11.879Z,0.20
2023-01-25T07:54:17.917Z,0.12
2023-01-25T07:59:42.603Z,0.23
2023-01-25T08:04:46.036Z,0.30
2023-01-25T08:09:54.547Z,0.29
2023-01-25T08:14:59.325Z,0.35
2023-01-25T08:20:15.379Z,0.41
2023-01-25T08:25:22.465Z,0.33
2023-01-25T08:30:56.248Z,0.48
2023-01-25T08:36:08.890Z,0.36
2023-01-25T08:41:16.635Z,0.43
2023-01-25T08:46:31.367Z,0.31
2023-01-25T08:51:35.423Z,0.13
2023-01-25T08:56:44.588Z,0.19
2023-01-25T09:01:49.313Z,0.32
2023-01-25T09:06:57.851Z,0.43
2023-01-25T09:17:40.373Z,0.52
2023-01-25T09:22:47.738Z,0.62
2023-01-25T09:27:57.082Z,0.68
2023-01-25T09:33:05.904Z,0.68
2023-01-25T09:38:11.406Z,0.68
2023-01-25T09:43:29.089Z,0.65
2023-01-25T09:48:53.918Z,0.68
2023-01-25T09:54:07.046Z,0.75
2023-01-25T09:59:22.174Z,0.79
2023-01-25T10:04:37.383Z,0.85
2023-01-25T10:09:51.161Z,0.85
2023-01-25T10:15:00.363Z,0.93
2023-01-25T10:20:28.059Z,1.01
2023-01-25T10:25:44.412Z,0.92
2023-01-25T10:30:58.356Z,1.05
2023-01-25T10:36:11.345Z,1.13
2023-01-25T10:41:38.719Z,1.08
2023-01-25T10:47:17.990Z,1.09
2023-01-25T10:52:42.631Z,1.15
2023-01-25T10:57:57.994Z,1.23
2023-01-25T11:03:02.485Z,1.24
2023-01-25T11:08:31.492Z,1.30
2023-01-25T11:13:35.286Z,1.18
2023-01-25T11:18:57.316Z,1.29
2023-01-25T11:24:23.615Z,1.34
2023-01-25T11:29:30.557Z,1.32
2023-01-25T11:34:44.052Z,1.28
2023-01-25T11:40:00.446Z,1.33
2023-01-25T11:45:48.876Z,1.31
2023-01-25T11:51:00.259Z,1.21
2023-01-25T11:56:21.448Z,1.27
2023-01-25T12:01:43.582Z,1.27
2023-01-25T12:07:03.010Z,1.39
2023-01-25T12:12:23.513Z,1.40
2023-01-25T12:23:18.991Z,1.35
2023-01-25T12:28:30.307Z,1.35
2023-01-25T12:33:39.425Z,1.28
2023-01-25T12:38:52.107Z,1.34
2023-01-25T12:44:04.822Z,1.29
2023-01-25T12:49:22.647Z,1.30
2023-01-25T12:54:40.246Z,1.23
2023-01-25T12:59:55.914Z,1.27
2023-01-25T13:05:04.496Z,1.33
2023-01-25T13:10:45.481Z,1.35
2023-01-25T13:15:53.883Z,1.24
2023-01-25T13:21:04.360Z,1.19
2023-01-25T13:26:49.240Z,1.18
2023-01-25T13:31:59.075Z,1.16
2023-01-25T13:37:20.959Z,1.08
2023-01-25T13:42:30.526Z,0.97
2023-01-25T13:47:40.092Z,0.98
2023-01-25T13:53:05.136Z,0.90
2023-01-25T13:58:27.887Z,0.74
2023-01-25T14:03:36.778Z,0.74
2023-01-25T14:08:50.056Z,0.77
2023-01-25T14:14:00.017Z,0.80
2023-01-25T14:19:35.742Z,0.67
2023-01-25T14:24:44.749Z,0.73
2023-01-25T14:29:50.886Z,0.66
2023-01-25T14:34:59.092Z,0.64
2023-01-25T14:40:12.481Z,0.55
2023-01-25T14:45:27.836Z,0.31
2023-01-25T14:50:40.068Z,0.31
2023-01-25T14:55:46.159Z,0.13
2023-01-25T15:00:54.096Z,0.08
2023-01-25T15:06:05.780Z,0.03
2023-01-25T15:11:45.541Z,0.06
2023-01-25T15:16:57.292Z,0.16
2023-01-25T15:22:09.818Z,0.18
2023-01-25T15:27:15.818Z,0.20
2023-01-25T15:32:33.194Z,0.21
2023-01-25T15:37:37.928Z,0.26
2023-01-25T15:42:42.507Z,0.24
2023-01-25T15:47:50.147Z,0.18
2023-01-25T15:53:01.130Z,0.20
2023-01-25T15:58:10.948Z,0.20
2023-01-25T16:03:22.554Z,0.19
2023-01-25T16:08:34.796Z,0.15
2023-01-25T16:13:37.712Z,0.14
2023-01-25T16:18:46.871Z,-0.05
2023-01-25T16:24:03.673Z,-0.11
2023-01-25T16:29:11.165Z,-0.15
2023-01-25T16:34:22.261Z,-0.11
2023-01-25T16:39:40.837Z,0.03
2023-01-25T16:44:46.241Z,0.13
2023-01-25T16:49:49.496Z,0.18
2023-01-25T16:55:02.482Z,0.18
2023-01-25T17:00:08.313Z,0.16
2023-01-25T17:05:17.204Z,0.15
2023-01-25T17:10:35.284Z,0.08
2023-01-25T17:15:38.731Z,0.19
2023-01-25T17:20:45.400Z,0.13
2023-01-25T17:25:54.886Z,0.17
2023-01-25T17:31:02.634Z,0.17
2023-01-25T17:36:17.535Z,0.16
2023-01-25T17:41:26.324Z,0.15
2023-01-25T17:46:33.532Z,0.17
2023-01-25T17:51:40.233Z,0.14
2023-01-25T17:56:48.247Z,0.06
2023-01-25T18:01:54.438Z,0.13
2023-01-25T18:06:58.627Z,0.13
2023-01-25T18:12:08.105Z,0.10
2023-01-25T18:17:17.000Z,0.16
2023-01-25T18:22:37.132Z,0.15
2023-01-25T18:27:41.882Z,0.14
2023-01-25T18:32:45.100Z,0.12
2023-01-25T18:37:51.823Z,0.10
2023-01-25T18:43:04.752Z,0.10
2023-01-25T18:48:22.855Z,0.03
2023-01-25T18:53:34.454Z,0.08
2023-01-25T18:58:45.377Z,0.02
2023-01-25T19:03:54.061Z,0.06
2023-01-25T19:09:00.880Z,0.04
2023-01-25T19:14:21.448Z,0.10
2023-01-25T19:19:31.967Z,0.06
2023-01-25T19:24:44.353Z,0.09
2023-01-25T19:29:53.081Z,-0.05
2023-01-25T19:35:01.626Z,0.01
2023-01-25T19:40:05.244Z,-0.04
2023-01-25T19:45:16.615Z,-0.11
2023-01-25T19:50:31.506Z,-0.17
2023-01-25T19:55:44.812Z,-0.18
2023-01-25T20:00:55.148Z,-0.15
2023-01-25T20:06:01.604Z,-0.14
2023-01-25T20:11:14.038Z,-0.21
2023-01-25T20:16:28.372Z,-0.16
2023-01-25T20:21:41.638Z,-0.15
2023-01-25T20:26:55.914Z,-0.20
2023-01-25T20:32:03.988Z,-0.27
2023-01-25T20:37:13.244Z,-0.25
2023-01-25T20:42:21.675Z,-0.31
2023-01-25T20:47:29.929Z,-0.33
2023-01-25T20:52:33.609Z,-0.29
2023-01-25T20:57:43.524Z,-0.23
2023-01-25T21:02:51.250Z,-0.26
2023-01-25T21:08:01.351Z,-0.29
2023-01-25T21:13:04.497Z,-0.24
2023-01-25T21:18:15.721Z,-0.23
2023-01-25T21:23:22.432Z,-0.27
2023-01-25T21:28:29.199Z,-0.23
2023-01-25T21:33:50.987Z,-0.26
2023-01-25T21:39:00.782Z,-0.23
2023-01-25T21:44:26.899Z,-0.30
2023-01-25T21:49:50.139Z,-0.26
2023-01-25T21:54:55.110Z,-0.28
2023-01-25T22:00:08.750Z,-0.24
2023-01-25T22:05:30.229Z,-0.28
2023-01-25T22:10:35.601Z,-0.24
2023-01-25T22:15:38.994Z,-0.25
2023-01-25T22:20:48.026Z,-0.27
2023-01-25T22:25:52.004Z,-0.25
2023-01-25T22:31:00.916Z,-0.28
2023-01-25T22:36:06.841Z,-0.21
2023-01-25T22:46:38.266Z,-0.19
2023-01-25T22:51:46.503Z,-0.20
2023-01-25T22:56:50.110Z,-0.21
2023-01-25T23:01:57.458Z,-0.14
2023-01-25T23:07:15.935Z,-0.18
2023-01-25T23:12:25.532Z,-0.14
2023-01-25T23:17:50.871Z,-0.18
2023-01-25T23:22:58.109Z,-0.20
2023-01-25T23:28:08.871Z,-0.21
2023-01-25T23:33:12.108Z,-0.19
2023-01-25T23:38:16.978Z,-0.21
2023-01-25T23:43:22.471Z,-0.26
2023-01-25T23:48:31.274Z,-0.29
2023-01-25T23:53:44.576Z,-0.40
2023-01-25T23:58:48.381Z,-0.40
